Time;durP1;ratioP1;P1;durP2;ratioP2;P2;SDS_P1;SDS_P2;PMS_P1;PMS_P2;Temp;Humidity;BMP_temperature;BMP_pressure;BME280_temperature;BME280_humidity;BME280_pressure;Samples;Min_cycle;Max_cycle;Signal;HPM_P1;HPM_P2
2023/07/24 00:07:23;;;;;;;;;;;;;;;19.10;100.00;100393.44;21102774;28;19923;-63
2023/07/24 00:17:44;;;;;;;;;;;;;;;19.09;100.00;100386.53;21085657;28;19949;-63
2023/07/24 00:28:06;;;;;;;;;;;;;;;19.04;100.00;100378.97;21091776;28;19932;-63
2023/07/24 00:38:27;;;;;;;;;;;;;;;18.99;100.00;100386.34;21097759;28;19968;-63
2023/07/24 00:48:49;;;;;;;;;;;;;;;18.97;100.00;100385.63;21074515;28;19924;-63
2023/07/24 00:59:11;;;;;;;;;;;;;;;18.91;100.00;100386.06;21093917;28;19950;-63
2023/07/24 01:09:33;;;;;;;;;;;;;;;18.92;100.00;100387.75;21098206;27;19923;-62
2023/07/24 01:19:56;;;;;;;;;;;;;;;18.92;100.00;100390.34;21103688;27;20740;-63
2023/07/24 01:30:18;;;;;;;;;;;;;;;18.91;99.75;100383.44;21100591;27;19928;-63
2023/07/24 01:40:40;;;;;;;;;;;;;;;18.81;100.00;100377.19;21110590;27;19967;-63
2023/07/24 01:51:02;;;;;;;;;;;;;;;18.85;99.80;100372.53;21102725;27;19928;-62
2023/07/24 02:01:23;;;;;;;;;;;;;;;18.86;99.41;100374.25;21107633;27;20283;-63
2023/07/24 02:11:45;;;;;;;;;;;;;;;18.81;99.18;100356.19;21087514;27;19928;-63
2023/07/24 02:22:06;;;;;;;;;;;;;;;18.81;98.81;100358.81;21103617;27;19923;-63
2023/07/24 02:32:28;;;;;;;;;;;;;;;18.73;98.28;100337.53;21118547;27;19928;-64
2023/07/24 02:42:50;;;;;;;;;;;;;;;18.62;98.66;100340.13;21095472;27;19925;-63
2023/07/24 02:53:11;;;;;;;;;;;;;;;18.50;99.93;100330.47;21101745;27;19924;-62
2023/07/24 03:03:33;;;;;;;;;;;;;;;18.42;100.00;100332.78;21104824;27;20401;-63
2023/07/24 03:13:55;;;;;;;;;;;;;;;18.27;100.00;100335.63;21105858;27;19923;-63
2023/07/24 03:24:17;;;;;;;;;;;;;;;18.24;100.00;100344.53;21079575;27;19930;-63
2023/07/24 03:34:39;;;;;;;;;;;;;;;18.18;100.00;100338.88;21088513;27;19927;-63
2023/07/24 03:45:00;;;;;;;;;;;;;;;18.15;100.00;100350.41;21086019;27;19975;-63
2023/07/24 03:55:22;;;;;;;;;;;;;;;18.15;100.00;100345.16;21100936;28;20418;-63
2023/07/24 04:05:43;;;;;;;;;;;;;;;18.18;100.00;100344.13;21073409;28;19958;-63
2023/07/24 04:16:05;;;;;;;;;;;;;;;18.24;100.00;100334.06;21101447;28;19978;-63
2023/07/24 04:26:26;;;;;;;;;;;;;;;18.32;100.00;100316.03;21094884;28;19924;-63
2023/07/24 04:36:48;;;;;;;;;;;;;;;18.35;100.00;100315.81;21089094;27;20023;-63
2023/07/24 04:47:10;;;;;;;;;;;;;;;18.36;100.00;100286.06;21104093;27;20081;-63
2023/07/24 04:57:31;;;;;;;;;;;;;;;18.38;100.00;100284.16;21108578;27;20387;-63
2023/07/24 05:07:53;;;;;;;;;;;;;;;18.43;100.00;100274.22;21112054;27;19931;-63
2023/07/24 05:18:14;;;;;;;;;;;;;;;18.44;100.00;100293.41;21097649;27;20285;-63
2023/07/24 05:28:36;;;;;;;;;;;;;;;18.49;100.00;100276.41;21085211;27;19924;-63
2023/07/24 05:38:57;;;;;;;;;;;;;;;18.50;100.00;100270.22;21100452;27;20044;-63
2023/07/24 05:49:19;;;;;;;;;;;;;;;18.53;100.00;100267.34;21099365;27;19939;-64
2023/07/24 05:59:40;;;;;;;;;;;;;;;18.57;100.00;100255.72;21099359;27;20757;-63
2023/07/24 06:10:02;;;;;;;;;;;;;;;18.62;100.00;100258.88;21092597;27;20017;-63
2023/07/24 06:20:23;;;;;;;;;;;;;;;18.68;100.00;100254.97;21078470;27;20372;-63
2023/07/24 06:30:45;;;;;;;;;;;;;;;18.64;100.00;100256.94;21098906;27;19932;-63
2023/07/24 06:41:06;;;;;;;;;;;;;;;18.65;100.00;100258.63;21114445;27;19938;-63
2023/07/24 06:51:28;;;;;;;;;;;;;;;18.70;100.00;100255.66;21097540;27;19933;-63
2023/07/24 07:01:49;;;;;;;;;;;;;;;18.71;100.00;100271.31;21085121;27;19923;-63
2023/07/24 07:12:11;;;;;;;;;;;;;;;18.75;100.00;100272.72;21102894;27;20442;-63
2023/07/24 07:22:32;;;;;;;;;;;;;;;18.84;98.52;100282.53;21089644;27;19924;-63
2023/07/24 07:32:53;;;;;;;;;;;;;;;18.95;98.08;100264.25;21081021;27;19924;-63
2023/07/24 07:43:15;;;;;;;;;;;;;;;19.25;96.11;100270.78;21088202;27;19928;-63
2023/07/24 07:53:37;;;;;;;;;;;;;;;19.40;93.23;100262.66;21074018;27;19955;-63
2023/07/24 08:03:58;;;;;;;;;;;;;;;19.44;91.71;100258.00;21099919;28;20578;-63
2023/07/24 08:14:19;;;;;;;;;;;;;;;19.43;92.23;100248.47;21102889;27;19927;-62
2023/07/24 08:24:41;;;;;;;;;;;;;;;19.52;90.04;100253.03;21098750;27;19931;-62
2023/07/24 08:35:03;;;;;;;;;;;;;;;19.69;89.05;100236.78;21103571;27;20288;-63
2023/07/24 08:45:25;;;;;;;;;;;;;;;19.75;89.67;100249.47;21106607;27;19937;-63
2023/07/24 08:55:49;;;;;;;;;;;;;;;19.78;88.96;100228.22;21113676;27;19924;-62
2023/07/24 09:06:10;;;;;;;;;;;;;;;20.05;88.16;100224.25;21106260;27;19931;-63
2023/07/24 09:16:32;;;;;;;;;;;;;;;20.18;86.98;100245.19;21091147;27;19932;-63
2023/07/24 09:26:55;;;;;;;;;;;;;;;20.21;87.86;100238.84;21093716;27;19934;-63
2023/07/24 09:37:37;;;;;;;;;;;;;;;20.30;86.91;100222.34;21091299;27;20197;-63
2023/07/24 09:48:00;;;;;;;;;;;;;;;20.87;83.09;100200.06;21105181;27;19924;-63
2023/07/24 09:58:29;;;;;;;;;;;;;;;21.21;82.47;100208.63;21098237;27;19923;-63
2023/07/24 10:08:51;;;;;;;;;;;;;;;21.36;81.50;100190.72;21096873;27;19958;-63
2023/07/24 10:19:13;;;;;;;;;;;;;;;21.67;81.87;100180.06;21095550;27;20484;-63
2023/07/24 10:29:36;;;;;;;;;;;;;;;21.72;81.95;100184.94;21095186;27;20147;-63
2023/07/24 10:39:58;;;;;;;;;;;;;;;22.22;78.04;100178.75;21092442;27;19923;-63
2023/07/24 10:50:21;;;;;;;;;;;;;;;22.51;76.71;100160.31;21097432;27;21603;-63
2023/07/24 11:00:43;;;;;;;;;;;;;;;22.68;75.57;100152.59;21101452;27;20042;-64
2023/07/24 11:11:05;;;;;;;;;;;;;;;22.58;77.37;100135.91;21085208;27;20368;-63
2023/07/24 11:21:26;;;;;;;;;;;;;;;23.16;73.51;100125.28;21083555;27;20014;-63
2023/07/24 11:31:53;;;;;;;;;;;;;;;23.19;75.08;100130.28;21074460;27;20015;-63
2023/07/24 11:42:15;;;;;;;;;;;;;;;23.59;69.82;100133.50;21104463;27;20562;-63
2023/07/24 11:52:40;;;;;;;;;;;;;;;23.95;67.30;100125.50;21088995;27;19932;-64
2023/07/24 12:03:04;;;;;;;;;;;;;;;24.16;70.11;100112.06;21101632;28;19932;-63
2023/07/24 12:13:26;;;;;;;;;;;;;;;24.34;68.59;100120.03;21101341;28;19931;-63
2023/07/24 12:23:48;;;;;;;;;;;;;;;24.26;68.09;100096.13;21081075;28;19924;-63
2023/07/24 12:34:09;;;;;;;;;;;;;;;23.98;72.29;100084.75;21086085;28;20378;-63
2023/07/24 12:44:30;;;;;;;;;;;;;;;23.88;72.77;100086.59;21089429;28;19935;-65
2023/07/24 12:54:52;;;;;;;;;;;;;;;23.73;70.96;100069.59;21084157;28;19928;-63
2023/07/24 13:05:22;;;;;;;;;;;;;;;23.65;72.81;100069.50;21109531;27;19924;-63
2023/07/24 13:15:44;;;;;;;;;;;;;;;23.76;71.92;100071.94;21099789;27;19931;-63
2023/07/24 13:26:07;;;;;;;;;;;;;;;23.63;70.99;100082.88;21105431;27;19928;-63
2023/07/24 13:36:29;;;;;;;;;;;;;;;23.53;71.20;100070.69;21096740;27;19934;-63
2023/07/24 13:46:51;;;;;;;;;;;;;;;23.39;73.15;100060.59;21103083;27;20273;-64
2023/07/24 13:57:13;;;;;;;;;;;;;;;23.28;72.08;100055.47;21098680;27;20350;-63
2023/07/24 14:07:34;;;;;;;;;;;;;;;23.24;70.54;100046.19;21106710;27;19931;-63
2023/07/24 14:17:56;;;;;;;;;;;;;;;23.31;72.37;100044.66;21091836;27;20157;-63
2023/07/24 14:28:17;;;;;;;;;;;;;;;23.29;71.26;100047.44;21096045;27;19924;-63
2023/07/24 14:38:39;;;;;;;;;;;;;;;23.17;75.18;100063.56;21108676;27;19924;-63
2023/07/24 14:49:00;;;;;;;;;;;;;;;22.37;69.22;100064.00;21084442;27;19924;-63
2023/07/24 14:59:22;;;;;;;;;;;;;;;21.89;73.16;100057.88;21092981;27;19924;-63
2023/07/24 15:09:43;;;;;;;;;;;;;;;21.34;73.49;100075.03;21103548;27;19923;-63
2023/07/24 15:20:06;;;;;;;;;;;;;;;20.89;73.86;100077.09;21101794;27;19928;-63
2023/07/24 15:30:27;;;;;;;;;;;;;;;20.10;74.95;100150.34;21081222;27;19939;-63
2023/07/24 15:40:49;;;;;;;;;;;;;;;18.78;92.13;100140.59;21080893;27;20018;-64
2023/07/24 15:51:10;;;;;;;;;;;;;;;18.40;99.03;100156.50;21096904;27;20295;-64
2023/07/24 16:01:32;;;;;;;;;;;;;;;18.14;97.75;100169.81;21097279;28;19924;-65
2023/07/24 16:11:54;;;;;;;;;;;;;;;18.17;99.09;100146.84;21100241;28;19931;-65
2023/07/24 16:22:15;;;;;;;;;;;;;;;18.15;99.60;100151.34;21098119;28;19924;-65
2023/07/24 16:32:37;;;;;;;;;;;;;;;18.18;100.00;100139.81;21088020;27;20649;-65
2023/07/24 16:43:09;;;;;;;;;;;;;;;18.04;99.54;100153.91;21114235;27;19924;-65
2023/07/24 16:53:31;;;;;;;;;;;;;;;18.17;100.00;100174.81;21111440;27;19928;-66
2023/07/24 17:03:53;;;;;;;;;;;;;;;18.56;100.00;100164.94;21102963;27;19924;-65
2023/07/24 17:14:17;;;;;;;;;;;;;;;18.72;100.00;100173.34;21109348;27;19932;-65
2023/07/24 17:24:39;;;;;;;;;;;;;;;18.79;100.00;100164.06;21100962;27;20547;-65
2023/07/24 17:35:00;;;;;;;;;;;;;;;18.68;98.47;100166.66;21111666;27;19926;-66
2023/07/24 17:45:22;;;;;;;;;;;;;;;18.67;99.92;100180.72;21104070;27;19931;-66
2023/07/24 17:55:43;;;;;;;;;;;;;;;18.62;100.00;100214.31;21093936;27;20349;-65
2023/07/24 18:06:05;;;;;;;;;;;;;;;18.46;96.39;100229.44;21093233;27;19962;-65
2023/07/24 18:16:26;;;;;;;;;;;;;;;18.20;96.56;100253.19;21107138;27;19923;-66
2023/07/24 18:26:48;;;;;;;;;;;;;;;17.94;98.20;100268.94;21115846;27;19924;-64
2023/07/24 18:37:09;;;;;;;;;;;;;;;17.61;96.40;100294.81;21092844;27;20002;-65
2023/07/24 18:47:33;;;;;;;;;;;;;;;17.26;94.06;100332.91;21092725;27;20022;-65
2023/07/24 18:57:55;;;;;;;;;;;;;;;17.06;94.78;100339.44;21108127;27;19947;-65
2023/07/24 19:08:17;;;;;;;;;;;;;;;16.82;95.71;100354.06;21109804;27;20014;-65
2023/07/24 19:18:39;;;;;;;;;;;;;;;16.67;94.78;100369.84;21087902;27;19986;-65
2023/07/24 19:29:01;;;;;;;;;;;;;;;16.61;97.09;100383.31;21089320;27;19963;-65
2023/07/24 19:39:23;;;;;;;;;;;;;;;16.53;95.38;100399.47;21092852;27;19924;-64
2023/07/24 19:49:44;;;;;;;;;;;;;;;16.54;96.36;100415.94;21096863;27;19924;-65
2023/07/24 20:00:06;;;;;;;;;;;;;;;16.57;98.44;100421.00;21092168;28;20022;-65
2023/07/24 20:10:28;;;;;;;;;;;;;;;16.60;97.71;100432.09;21089638;27;19928;-65
2023/07/24 20:20:50;;;;;;;;;;;;;;;16.66;98.85;100436.13;21098805;27;19927;-65
2023/07/24 20:31:12;;;;;;;;;;;;;;;16.62;96.49;100443.31;21103560;27;19930;-65
2023/07/24 20:41:34;;;;;;;;;;;;;;;16.71;96.95;100458.41;21113164;27;19924;-65
2023/07/24 20:51:55;;;;;;;;;;;;;;;16.63;96.53;100463.25;21095937;27;19928;-64
2023/07/24 21:02:17;;;;;;;;;;;;;;;16.49;96.05;100459.81;21102904;27;19923;-65
2023/07/24 21:12:39;;;;;;;;;;;;;;;16.58;98.08;100473.16;21096127;27;19928;-65
2023/07/24 21:23:00;;;;;;;;;;;;;;;16.56;96.67;100477.63;21100978;27;19927;-65
2023/07/24 21:33:21;;;;;;;;;;;;;;;16.49;95.55;100485.94;21098481;27;19924;-64
2023/07/24 21:43:43;;;;;;;;;;;;;;;16.42;95.97;100490.66;21103166;27;19970;-65
2023/07/24 21:54:04;;;;;;;;;;;;;;;16.31;95.14;100492.22;21102873;27;19924;-65
2023/07/24 22:04:26;;;;;;;;;;;;;;;16.34;96.18;100497.25;21112329;27;19923;-64
2023/07/24 22:14:47;;;;;;;;;;;;;;;16.26;95.47;100494.25;21098544;27;19928;-63
2023/07/24 22:25:09;;;;;;;;;;;;;;;16.18;96.52;100523.44;21109508;27;19999;-63
2023/07/24 22:35:30;;;;;;;;;;;;;;;16.13;97.32;100525.47;21097945;27;19928;-64
2023/07/24 22:45:52;;;;;;;;;;;;;;;16.13;96.46;100521.06;21096991;27;19934;-62
2023/07/24 22:56:13;;;;;;;;;;;;;;;16.11;96.32;100527.31;21088101;27;19924;-63
2023/07/24 23:06:35;;;;;;;;;;;;;;;16.04;97.87;100536.44;21098169;27;20423;-63
2023/07/24 23:16:56;;;;;;;;;;;;;;;16.00;95.71;100532.31;21083911;27;20004;-63
2023/07/24 23:27:18;;;;;;;;;;;;;;;15.99;95.16;100530.63;21092533;27;20469;-63
2023/07/24 23:37:39;;;;;;;;;;;;;;;15.92;96.93;100531.91;21079854;27;19938;-63
2023/07/24 23:48:01;;;;;;;;;;;;;;;15.85;95.36;100527.97;21101741;27;19924;-63
2023/07/24 23:58:23;;;;;;;;;;;;;;;15.87;96.38;100545.22;21099719;28;20004;-63
